createdAt,value
2023-01-17T00:01:31.150Z,3.40
2023-01-17T00:04:16.745Z,3.40
2023-01-17T00:07:02.158Z,3.40
2023-01-17T00:09:47.436Z,3.50
2023-01-17T00:12:14.146Z,3.50
2023-01-17T00:14:40.907Z,3.60
2023-01-17T00:17:07.553Z,3.60
2023-01-17T00:19:52.678Z,3.60
2023-01-17T00:22:48.663Z,3.60
2023-01-17T00:25:36.618Z,3.60
2023-01-17T00:28:04.534Z,3.60
2023-01-17T00:30:31.478Z,3.70
2023-01-17T00:32:58.182Z,3.60
2023-01-17T00:35:26.762Z,3.60
2023-01-17T00:38:14.191Z,3.70
2023-01-17T00:40:43.015Z,3.70
2023-01-17T00:43:30.103Z,3.70
2023-01-17T00:46:15.522Z,3.80
2023-01-17T00:49:01.432Z,3.70
2023-01-17T00:51:48.388Z,3.70
2023-01-17T00:54:34.345Z,3.70
2023-01-17T00:57:20.782Z,3.70
2023-01-17T01:00:06.200Z,3.60
2023-01-17T01:02:52.072Z,3.60
2023-01-17T01:05:37.994Z,3.60
2023-01-17T01:08:38.441Z,3.70
2023-01-17T01:11:29.751Z,3.70
2023-01-17T01:14:15.527Z,3.70
2023-01-17T01:17:00.891Z,3.60
2023-01-17T01:19:46.310Z,3.70
2023-01-17T01:22:31.764Z,3.70
2023-01-17T01:25:17.165Z,3.70
2023-01-17T01:28:02.676Z,3.60
2023-01-17T01:30:48.000Z,3.40
2023-01-17T01:33:18.616Z,3.50
2023-01-17T01:35:52.370Z,3.40
2023-01-17T01:38:20.878Z,3.30
2023-01-17T01:40:50.052Z,3.40
2023-01-17T01:43:20.303Z,3.40
2023-01-17T01:45:56.668Z,3.30
2023-01-17T01:48:41.788Z,3.30
2023-01-17T01:51:13.438Z,3.20
2023-01-17T01:53:44.634Z,3.40
2023-01-17T01:56:13.575Z,3.20
2023-01-17T01:58:43.807Z,3.20
2023-01-17T02:01:10.625Z,3.20
2023-01-17T02:03:39.988Z,3.10
2023-01-17T02:06:41.619Z,3.00
2023-01-17T02:09:10.959Z,3.10
2023-01-17T02:11:39.797Z,3.10
2023-01-17T02:14:06.451Z,3.10
2023-01-17T02:17:15.527Z,3.00
2023-01-17T02:19:51.006Z,3.10
2023-01-17T02:22:51.398Z,3.00
2023-01-17T02:25:57.922Z,3.10
2023-01-17T02:28:51.091Z,3.00
2023-01-17T02:31:36.948Z,3.00
2023-01-17T02:34:10.707Z,3.00
2023-01-17T02:36:47.793Z,2.90
2023-01-17T02:39:38.351Z,2.90
2023-01-17T02:42:09.459Z,2.90
2023-01-17T02:44:43.735Z,2.90
2023-01-17T02:47:28.546Z,2.80
2023-01-17T02:50:11.995Z,2.80
2023-01-17T02:52:50.711Z,2.70
2023-01-17T02:55:26.473Z,2.70
2023-01-17T02:57:55.835Z,2.70
2023-01-17T03:00:29.707Z,2.60
2023-01-17T03:03:14.152Z,2.70
2023-01-17T03:05:49.052Z,2.70
2023-01-17T03:08:17.001Z,2.80
2023-01-17T03:10:45.015Z,2.70
2023-01-17T03:13:11.692Z,2.60
2023-01-17T03:15:40.258Z,2.70
2023-01-17T03:18:12.003Z,2.70
2023-01-17T03:20:38.735Z,2.60
2023-01-17T03:23:05.550Z,2.60
2023-01-17T03:25:32.442Z,2.60
2023-01-17T03:27:59.067Z,2.60
2023-01-17T03:30:25.809Z,2.70
2023-01-17T03:32:52.521Z,2.60
2023-01-17T03:35:19.225Z,2.70
2023-01-17T03:37:45.856Z,2.70
2023-01-17T03:40:12.587Z,2.70
2023-01-17T03:42:39.757Z,2.70
2023-01-17T03:45:06.765Z,2.70
2023-01-17T03:47:35.044Z,2.70
2023-01-17T03:50:01.947Z,2.70
2023-01-17T03:52:28.667Z,2.70
2023-01-17T03:54:55.268Z,2.70
2023-01-17T03:57:21.853Z,2.70
2023-01-17T03:59:48.677Z,2.70
2023-01-17T04:02:17.678Z,2.70
2023-01-17T04:04:44.380Z,2.70
2023-01-17T04:07:10.991Z,2.70
2023-01-17T04:09:37.717Z,2.60
2023-01-17T04:12:04.550Z,2.60
2023-01-17T04:14:31.197Z,2.50
2023-01-17T04:16:58.189Z,2.60
2023-01-17T04:19:24.863Z,2.60
2023-01-17T04:21:51.476Z,2.60
2023-01-17T04:24:18.235Z,2.60
2023-01-17T04:26:44.959Z,2.60
2023-01-17T04:29:11.630Z,2.50
2023-01-17T04:31:38.361Z,2.40
2023-01-17T04:34:05.097Z,2.40
2023-01-17T04:36:32.409Z,2.30
2023-01-17T04:38:59.068Z,2.30
2023-01-17T04:41:25.740Z,2.20
2023-01-17T04:43:52.338Z,2.10
2023-01-17T04:46:19.025Z,2.10
2023-01-17T04:48:45.882Z,2.10
2023-01-17T04:51:12.585Z,2.10
2023-01-17T04:53:39.238Z,2.00
2023-01-17T04:56:06.072Z,1.90
2023-01-17T04:58:33.407Z,1.90
2023-01-17T05:01:08.261Z,1.80
2023-01-17T05:03:35.498Z,1.90
2023-01-17T05:06:02.213Z,1.80
2023-01-17T05:08:28.916Z,1.60
2023-01-17T05:10:55.571Z,1.70
2023-01-17T05:13:22.233Z,1.70
2023-01-17T05:15:48.976Z,1.60
2023-01-17T05:18:17.669Z,1.60
2023-01-17T05:20:44.510Z,1.50
2023-01-17T05:23:11.722Z,1.50
2023-01-17T05:25:39.107Z,1.50
2023-01-17T05:28:05.774Z,1.40
2023-01-17T05:30:33.222Z,1.40
2023-01-17T05:32:59.939Z,1.40
2023-01-17T05:35:29.642Z,1.40
2023-01-17T05:37:56.643Z,1.40
2023-01-17T05:40:26.606Z,1.40
2023-01-17T05:42:55.680Z,1.30
2023-01-17T05:45:24.075Z,1.20
2023-01-17T05:47:54.087Z,1.20
2023-01-17T05:50:24.114Z,1.20
2023-01-17T05:52:59.288Z,1.20
2023-01-17T05:55:27.431Z,1.10
2023-01-17T05:57:55.026Z,1.10
2023-01-17T06:00:22.217Z,1.10
2023-01-17T06:02:49.165Z,1.10
2023-01-17T06:05:16.794Z,1.10
2023-01-17T06:07:45.272Z,1.00
2023-01-17T06:10:14.402Z,1.00
2023-01-17T06:12:45.408Z,1.00
2023-01-17T06:15:14.034Z,1.00
2023-01-17T06:17:40.916Z,1.00
2023-01-17T06:20:09.625Z,0.90
2023-01-17T06:22:36.547Z,0.90
2023-01-17T06:25:03.391Z,0.90
2023-01-17T06:27:29.996Z,0.90
2023-01-17T06:29:56.637Z,0.90
2023-01-17T06:32:23.273Z,0.90
2023-01-17T06:34:49.901Z,0.80
2023-01-17T06:37:16.562Z,0.80
2023-01-17T06:39:43.295Z,0.80
2023-01-17T06:42:09.991Z,0.70
2023-01-17T06:44:36.648Z,0.80
2023-01-17T06:47:03.337Z,0.80
2023-01-17T06:49:29.995Z,0.80
2023-01-17T06:51:56.749Z,0.80
2023-01-17T06:54:23.347Z,0.80
2023-01-17T06:56:49.930Z,0.80
2023-01-17T06:59:16.537Z,0.70
2023-01-17T07:01:43.247Z,0.70
2023-01-17T07:04:09.927Z,0.80
2023-01-17T07:06:37.109Z,0.70
2023-01-17T07:09:04.413Z,0.70
2023-01-17T07:11:31.397Z,0.70
2023-01-17T07:13:58.098Z,0.80
2023-01-17T07:16:24.803Z,0.80
2023-01-17T07:18:51.792Z,0.80
2023-01-17T07:21:18.559Z,0.80
2023-01-17T07:23:45.258Z,0.80
2023-01-17T07:26:11.989Z,0.70
2023-01-17T07:28:38.613Z,0.90
2023-01-17T07:31:07.871Z,0.80
2023-01-17T07:33:34.953Z,0.70
2023-01-17T07:36:09.304Z,0.80
2023-01-17T07:38:36.301Z,0.70
2023-01-17T07:41:02.960Z,0.70
2023-01-17T07:43:29.946Z,0.80
2023-01-17T07:45:56.923Z,0.20
2023-01-17T07:48:25.050Z,0.70
2023-01-17T07:50:56.248Z,0.70
2023-01-17T07:53:28.511Z,0.70
2023-01-17T07:55:55.648Z,0.70
2023-01-17T07:58:22.728Z,0.70
2023-01-17T08:00:49.490Z,0.70
2023-01-17T08:03:18.021Z,0.70
2023-01-17T08:05:57.542Z,0.70
2023-01-17T08:08:24.592Z,0.70
2023-01-17T08:10:51.600Z,0.70
2023-01-17T08:13:18.314Z,0.70
2023-01-17T08:15:47.461Z,0.70
2023-01-17T08:18:14.136Z,0.70
2023-01-17T08:20:42.525Z,0.70
2023-01-17T08:23:09.187Z,0.70
2023-01-17T08:25:36.062Z,0.60
2023-01-17T08:28:02.802Z,0.70
2023-01-17T08:30:29.503Z,0.80
2023-01-17T08:32:56.446Z,0.70
2023-01-17T08:35:23.092Z,0.70
2023-01-17T08:37:54.320Z,0.70
2023-01-17T08:40:21.332Z,0.70
2023-01-17T08:42:58.521Z,0.70
2023-01-17T08:45:25.780Z,0.70
2023-01-17T08:47:52.635Z,0.70
2023-01-17T08:50:22.328Z,0.80
2023-01-17T08:52:49.859Z,1.20
2023-01-17T08:55:16.990Z,1.60
2023-01-17T08:57:43.638Z,1.90
2023-01-17T09:00:11.170Z,2.10
2023-01-17T09:02:37.767Z,2.40
2023-01-17T09:05:04.673Z,2.70
2023-01-17T09:07:31.478Z,2.50
2023-01-17T09:09:58.162Z,2.60
2023-01-17T09:12:25.083Z,2.70
2023-01-17T09:14:51.744Z,2.80
2023-01-17T09:17:18.388Z,2.80
2023-01-17T09:19:47.409Z,3.00
2023-01-17T09:22:14.364Z,3.20
2023-01-17T09:24:41.290Z,3.00
2023-01-17T09:27:08.041Z,3.00
2023-01-17T09:29:34.770Z,3.50
2023-01-17T09:32:02.085Z,3.30
2023-01-17T09:34:30.396Z,3.60
2023-01-17T09:36:57.187Z,3.50
2023-01-17T09:39:23.953Z,3.60
2023-01-17T09:42:06.429Z,3.60
2023-01-17T09:44:53.805Z,3.60
2023-01-17T09:47:43.462Z,3.70
2023-01-17T09:50:36.386Z,3.50
2023-01-17T09:53:07.068Z,3.70
2023-01-17T09:55:49.465Z,3.90
2023-01-17T09:58:42.267Z,3.90
2023-01-17T10:01:13.006Z,4.00
2023-01-17T10:03:54.499Z,4.00
2023-01-17T10:07:02.992Z,4.10
2023-01-17T10:09:57.742Z,4.10
2023-01-17T10:12:38.282Z,4.10
2023-01-17T10:15:32.538Z,4.10
2023-01-17T10:18:29.973Z,4.10
2023-01-17T10:21:24.985Z,4.10
2023-01-17T10:24:22.143Z,4.00
2023-01-17T10:26:56.161Z,4.00
2023-01-17T10:29:28.004Z,3.90
2023-01-17T10:32:01.965Z,3.90
2023-01-17T10:34:39.504Z,3.90
2023-01-17T10:37:40.911Z,4.00
2023-01-17T10:40:24.578Z,3.90
2023-01-17T10:43:19.996Z,4.00
2023-01-17T10:45:57.166Z,4.00
2023-01-17T10:48:38.023Z,4.00
2023-01-17T10:51:44.717Z,4.20
2023-01-17T10:54:50.023Z,4.20
2023-01-17T10:57:24.369Z,4.60
2023-01-17T10:59:52.036Z,4.80
2023-01-17T11:02:26.193Z,4.90
2023-01-17T11:04:55.594Z,5.50
2023-01-17T11:07:24.141Z,5.70
2023-01-17T11:09:53.382Z,5.70
2023-01-17T11:12:30.371Z,5.80
2023-01-17T11:15:05.835Z,6.00
2023-01-17T11:17:33.769Z,5.70
2023-01-17T11:20:23.381Z,5.60
2023-01-17T11:23:04.879Z,6.00
2023-01-17T11:25:34.030Z,5.50
2023-01-17T11:28:20.679Z,5.40
2023-01-17T11:30:56.422Z,5.00
2023-01-17T11:33:48.042Z,4.60
2023-01-17T11:36:29.919Z,4.80
2023-01-17T11:39:05.752Z,4.80
2023-01-17T11:41:39.055Z,4.80
2023-01-17T11:44:28.515Z,4.80
2023-01-17T11:47:13.374Z,4.70
2023-01-17T11:49:49.994Z,4.60
2023-01-17T11:52:33.495Z,4.50
2023-01-17T11:55:00.367Z,4.50
2023-01-17T11:57:30.992Z,4.50
2023-01-17T12:00:26.846Z,4.50
2023-01-17T12:03:05.434Z,4.40
2023-01-17T12:05:39.322Z,4.20
2023-01-17T12:08:11.531Z,4.20
2023-01-17T12:11:16.669Z,4.30
2023-01-17T12:14:01.755Z,4.20
2023-01-17T12:17:00.298Z,4.20
2023-01-17T12:20:01.507Z,4.20
2023-01-17T12:22:53.553Z,4.20
2023-01-17T12:25:46.482Z,4.10
2023-01-17T12:28:18.858Z,4.20
2023-01-17T12:31:01.656Z,4.20
2023-01-17T12:33:51.400Z,4.20
2023-01-17T12:36:49.469Z,4.20
2023-01-17T12:39:18.740Z,4.40
2023-01-17T12:42:05.636Z,4.50
2023-01-17T12:44:53.329Z,4.60
2023-01-17T12:47:23.175Z,4.60
2023-01-17T12:50:27.036Z,4.60
2023-01-17T12:53:10.772Z,4.60
2023-01-17T12:56:10.586Z,4.70
2023-01-17T12:58:46.239Z,4.60
2023-01-17T13:01:17.440Z,4.60
2023-01-17T13:03:57.849Z,4.60
2023-01-17T13:06:50.872Z,4.70
2023-01-17T13:09:21.699Z,4.60
2023-01-17T13:12:09.840Z,4.70
2023-01-17T13:14:36.455Z,4.70
2023-01-17T13:17:24.076Z,4.70
2023-01-17T13:19:58.868Z,4.70
2023-01-17T13:22:27.205Z,4.70
2023-01-17T13:25:08.136Z,4.70
2023-01-17T13:28:04.977Z,4.80
2023-01-17T13:30:50.144Z,4.70
2023-01-17T13:34:06.591Z,4.70
2023-01-17T13:36:57.758Z,4.70
2023-01-17T13:39:51.929Z,4.70
2023-01-17T13:42:30.179Z,4.70
2023-01-17T13:44:58.031Z,4.70
2023-01-17T13:47:27.700Z,4.60
2023-01-17T13:49:56.654Z,4.60
2023-01-17T13:52:26.455Z,4.60
2023-01-17T13:54:55.519Z,4.60
2023-01-17T13:57:30.099Z,4.50
2023-01-17T14:00:16.083Z,4.50
2023-01-17T14:02:43.675Z,4.50
2023-01-17T14:05:15.074Z,4.40
2023-01-17T14:08:01.904Z,4.40
2023-01-17T14:10:37.107Z,4.50
2023-01-17T14:13:06.192Z,4.40
2023-01-17T14:15:47.151Z,4.30
2023-01-17T14:18:38.649Z,4.30
2023-01-17T14:21:19.520Z,4.20
2023-01-17T14:23:55.906Z,4.20
2023-01-17T14:26:29.150Z,4.20
2023-01-17T14:28:57.798Z,4.30
2023-01-17T14:31:24.844Z,4.20
2023-01-17T14:33:51.735Z,4.10
2023-01-17T14:36:29.475Z,4.10
2023-01-17T14:38:56.333Z,4.20
2023-01-17T14:41:26.732Z,4.10
2023-01-17T14:43:54.306Z,4.20
2023-01-17T14:46:32.457Z,4.10
2023-01-17T14:49:05.733Z,4.10
2023-01-17T14:51:37.199Z,4.10
2023-01-17T14:54:21.955Z,4.00
2023-01-17T14:56:48.584Z,3.90
2023-01-17T14:59:22.011Z,3.90
2023-01-17T15:02:07.703Z,3.90
2023-01-17T15:04:39.462Z,3.80
2023-01-17T15:07:07.388Z,3.70
2023-01-17T15:09:37.357Z,3.60
2023-01-17T15:12:04.964Z,3.60
2023-01-17T15:14:38.268Z,3.60
2023-01-17T15:17:24.689Z,3.50
2023-01-17T15:19:57.735Z,3.50
2023-01-17T15:22:26.289Z,3.40
2023-01-17T15:24:53.701Z,3.50
2023-01-17T15:27:20.849Z,3.40
2023-01-17T15:29:48.013Z,3.30
2023-01-17T15:32:24.018Z,3.30
2023-01-17T15:34:52.303Z,3.20
2023-01-17T15:37:34.162Z,3.10
2023-01-17T15:40:19.752Z,3.10
2023-01-17T15:42:58.478Z,3.00
2023-01-17T15:45:30.076Z,3.00
2023-01-17T15:47:59.047Z,3.00
2023-01-17T15:50:36.326Z,3.00
2023-01-17T15:53:06.284Z,3.00
2023-01-17T15:55:35.751Z,3.00
2023-01-17T15:58:03.707Z,2.90
2023-01-17T16:00:39.216Z,2.80
2023-01-17T16:03:32.358Z,2.80
2023-01-17T16:06:01.223Z,2.80
2023-01-17T16:08:39.354Z,2.70
2023-01-17T16:11:07.728Z,2.70
2023-01-17T16:13:38.724Z,2.70
2023-01-17T16:16:11.508Z,2.70
2023-01-17T16:18:38.540Z,2.60
2023-01-17T16:21:24.373Z,2.60
2023-01-17T16:23:51.206Z,2.50
2023-01-17T16:26:18.244Z,2.50
2023-01-17T16:28:45.677Z,2.50
2023-01-17T16:31:12.532Z,2.40
2023-01-17T16:33:39.387Z,2.40
2023-01-17T16:36:06.477Z,2.40
2023-01-17T16:38:33.230Z,2.40
2023-01-17T16:41:03.813Z,2.30
2023-01-17T16:43:30.411Z,2.30
2023-01-17T16:45:57.013Z,2.30
2023-01-17T16:48:23.609Z,2.20
2023-01-17T16:50:52.674Z,2.20
2023-01-17T16:53:25.087Z,2.10
2023-01-17T16:55:54.966Z,2.10
2023-01-17T16:58:21.815Z,2.00
2023-01-17T17:00:48.837Z,2.10
2023-01-17T17:03:20.677Z,2.00
2023-01-17T17:05:56.178Z,2.00
2023-01-17T17:08:24.029Z,2.00
2023-01-17T17:10:51.049Z,1.90
2023-01-17T17:13:17.949Z,1.90
2023-01-17T17:15:44.838Z,1.90
2023-01-17T17:18:16.423Z,1.80
2023-01-17T17:20:43.816Z,1.80
2023-01-17T17:23:10.778Z,1.80
2023-01-17T17:25:37.887Z,1.70
2023-01-17T17:28:05.523Z,1.70
2023-01-17T17:30:32.479Z,1.70
2023-01-17T17:32:59.128Z,1.70
2023-01-17T17:35:25.754Z,1.70
2023-01-17T17:37:52.793Z,1.70
2023-01-17T17:40:19.766Z,1.70
2023-01-17T17:42:46.364Z,1.70
2023-01-17T17:45:13.131Z,1.70
2023-01-17T17:47:39.795Z,1.60
2023-01-17T17:50:06.989Z,1.60
2023-01-17T17:52:33.698Z,1.60
2023-01-17T17:55:00.358Z,1.60
2023-01-17T17:57:27.040Z,1.60
2023-01-17T17:59:56.674Z,1.50
2023-01-17T18:02:23.414Z,1.50
2023-01-17T18:04:50.156Z,1.40
2023-01-17T18:07:16.985Z,1.40
2023-01-17T18:09:43.705Z,1.40
2023-01-17T18:12:10.406Z,1.30
2023-01-17T18:14:37.182Z,1.40
2023-01-17T18:17:03.872Z,1.40
2023-01-17T18:19:30.513Z,1.40
2023-01-17T18:21:58.061Z,1.30
2023-01-17T18:24:25.316Z,1.40
2023-01-17T18:26:57.492Z,1.30
2023-01-17T18:29:25.579Z,1.30
2023-01-17T18:31:53.186Z,1.30
2023-01-17T18:34:23.848Z,1.20
2023-01-17T18:36:51.519Z,1.30
2023-01-17T18:39:24.492Z,1.20
2023-01-17T18:41:51.676Z,1.20
2023-01-17T18:44:21.952Z,1.30
2023-01-17T18:46:50.205Z,1.20
2023-01-17T18:49:19.072Z,1.20
2023-01-17T18:51:50.321Z,1.20
2023-01-17T18:54:18.144Z,1.20
2023-01-17T18:56:44.969Z,1.20
2023-01-17T18:59:13.865Z,1.20
2023-01-17T19:01:44.489Z,1.20
2023-01-17T19:04:13.434Z,1.20
2023-01-17T19:06:42.799Z,1.10
2023-01-17T19:09:11.908Z,1.10
2023-01-17T19:11:38.866Z,1.10
2023-01-17T19:14:07.065Z,1.10
2023-01-17T19:16:39.007Z,1.00
2023-01-17T19:19:09.157Z,1.00
2023-01-17T19:21:36.234Z,1.00
2023-01-17T19:24:03.499Z,1.80
2023-01-17T19:26:30.373Z,0.90
2023-01-17T19:28:58.937Z,1.00
2023-01-17T19:31:28.746Z,0.90
2023-01-17T19:33:57.616Z,0.90
2023-01-17T19:36:27.354Z,0.90
2023-01-17T19:39:04.028Z,0.80
2023-01-17T19:41:33.782Z,0.90
2023-01-17T19:44:04.362Z,0.60
2023-01-17T19:46:31.631Z,0.80
2023-01-17T19:48:59.448Z,0.80
2023-01-17T19:51:27.728Z,0.80
2023-01-17T19:53:54.808Z,0.80
2023-01-17T19:56:24.088Z,0.70
2023-01-17T19:58:52.084Z,0.70
2023-01-17T20:01:22.011Z,0.60
2023-01-17T20:03:49.547Z,0.70
2023-01-17T20:06:19.479Z,0.70
2023-01-17T20:08:46.236Z,0.70
2023-01-17T20:11:15.999Z,0.60
2023-01-17T20:13:42.766Z,0.60
2023-01-17T20:16:11.542Z,0.70
2023-01-17T20:18:38.425Z,0.70
2023-01-17T20:21:12.360Z,0.70
2023-01-17T20:23:42.791Z,0.70
2023-01-17T20:26:10.880Z,0.70
2023-01-17T20:28:39.641Z,0.60
2023-01-17T20:31:15.276Z,0.60
2023-01-17T20:33:43.142Z,0.60
2023-01-17T20:36:12.198Z,0.60
2023-01-17T20:38:45.441Z,0.60
2023-01-17T20:41:21.422Z,0.50
2023-01-17T20:43:50.459Z,0.60
2023-01-17T20:46:18.754Z,0.60
2023-01-17T20:48:47.759Z,0.50
2023-01-17T20:51:15.614Z,0.50
2023-01-17T20:53:44.305Z,0.50
2023-01-17T20:56:15.437Z,0.50
2023-01-17T20:58:42.498Z,0.40
2023-01-17T21:01:11.423Z,0.40
2023-01-17T21:03:39.320Z,0.40
2023-01-17T21:06:07.409Z,0.40
2023-01-17T21:08:36.141Z,0.40
2023-01-17T21:11:03.530Z,0.40
2023-01-17T21:13:31.592Z,0.30
2023-01-17T21:15:58.672Z,0.30
2023-01-17T21:18:27.254Z,0.30
2023-01-17T21:20:53.918Z,0.30
2023-01-17T21:23:20.921Z,0.30
2023-01-17T21:25:59.878Z,0.20
2023-01-17T21:28:29.546Z,0.30
2023-01-17T21:30:56.953Z,0.20
2023-01-17T21:33:25.878Z,0.20
2023-01-17T21:35:52.987Z,0.10
2023-01-17T21:38:19.582Z,0.10
2023-01-17T21:40:46.808Z,0.10
2023-01-17T21:43:13.643Z,0.10
2023-01-17T21:45:41.709Z,0.20
2023-01-17T21:48:13.516Z,0.10
2023-01-17T21:50:40.468Z,0.10
2023-01-17T21:53:08.618Z,0.00
2023-01-17T21:55:54.481Z,0.00
2023-01-17T21:58:39.969Z,0.10
2023-01-17T22:01:17.793Z,0.00
2023-01-17T22:03:51.569Z,0.00
2023-01-17T22:06:19.453Z,-0.10
2023-01-17T22:08:46.478Z,-0.10
2023-01-17T22:11:15.742Z,-0.10
2023-01-17T22:13:44.110Z,-0.10
2023-01-17T22:16:13.800Z,-0.20
2023-01-17T22:18:42.332Z,-0.20
2023-01-17T22:21:15.899Z,-0.20
2023-01-17T22:23:51.246Z,-0.20
2023-01-17T22:26:19.122Z,-0.20
2023-01-17T22:28:45.913Z,-0.30
2023-01-17T22:31:15.134Z,-0.30
2023-01-17T22:33:44.115Z,-0.30
2023-01-17T22:36:14.988Z,-0.40
2023-01-17T22:38:42.909Z,-0.30
2023-01-17T22:41:16.166Z,-0.40
2023-01-17T22:43:45.273Z,-0.40
2023-01-17T22:46:14.571Z,-0.30
2023-01-17T22:48:41.944Z,-0.30
2023-01-17T22:51:11.138Z,-0.30
2023-01-17T22:53:42.573Z,-0.40
2023-01-17T22:56:31.629Z,-0.40
2023-01-17T22:59:00.618Z,-0.40
2023-01-17T23:01:32.856Z,-0.40
2023-01-17T23:04:01.562Z,-0.40
2023-01-17T23:06:34.521Z,-0.40
2023-01-17T23:09:04.495Z,-0.40
2023-01-17T23:11:43.187Z,-0.40
2023-01-17T23:14:20.611Z,-0.40
2023-01-17T23:17:09.951Z,-0.30
2023-01-17T23:19:42.305Z,-0.30
2023-01-17T23:22:18.991Z,-0.30
2023-01-17T23:24:48.378Z,-0.30
2023-01-17T23:27:47.177Z,-0.40
2023-01-17T23:30:21.280Z,-0.40
2023-01-17T23:33:00.837Z,-0.30
2023-01-17T23:35:30.237Z,-0.30
2023-01-17T23:38:16.021Z,-0.40
2023-01-17T23:40:43.663Z,-0.30
2023-01-17T23:43:22.754Z,-0.30
2023-01-17T23:45:54.651Z,-0.30
2023-01-17T23:48:24.593Z,-0.30
2023-01-17T23:50:51.656Z,-0.30
2023-01-17T23:53:23.623Z,-0.40
2023-01-17T23:55:55.178Z,-0.40
2023-01-17T23:58:24.776Z,-0.40
